createdAt,value
2018-05-17T00:01:09.680Z,17.61
2018-05-17T00:03:37.940Z,17.47
2018-05-17T00:06:06.296Z,17.33
2018-05-17T00:08:34.610Z,17.43
2018-05-17T00:11:02.882Z,17.65
2018-05-17T00:13:31.533Z,17.73
2018-05-17T00:15:59.833Z,17.81
2018-05-17T00:18:28.115Z,17.77
2018-05-17T00:20:56.366Z,17.77
2018-05-17T00:23:24.681Z,17.64
2018-05-17T00:25:52.961Z,17.63
2018-05-17T00:28:21.497Z,17.63
2018-05-17T00:30:49.804Z,17.52
2018-05-17T00:33:18.089Z,17.64
2018-05-17T00:35:46.517Z,17.66
2018-05-17T00:38:15.743Z,17.65
2018-05-17T00:40:45.667Z,17.63
2018-05-17T00:43:13.957Z,17.53
2018-05-17T00:45:42.250Z,17.31
2018-05-17T00:48:10.527Z,17.14
2018-05-17T00:50:39.167Z,17.18
2018-05-17T00:53:20.078Z,17.28
2018-05-17T00:55:48.373Z,17.40
2018-05-17T00:58:16.802Z,17.41
2018-05-17T01:00:45.494Z,17.31
2018-05-17T01:03:13.915Z,17.32
2018-05-17T01:05:42.283Z,17.29
2018-05-17T01:08:11.290Z,17.38
2018-05-17T01:10:39.721Z,17.31
2018-05-17T01:13:07.997Z,17.50
2018-05-17T01:15:36.310Z,17.58
2018-05-17T01:18:05.614Z,17.34
2018-05-17T01:20:33.967Z,17.04
2018-05-17T01:23:02.270Z,16.89
2018-05-17T01:25:30.596Z,16.90
2018-05-17T01:27:59.323Z,16.95
2018-05-17T01:30:27.626Z,17.03
2018-05-17T01:32:55.906Z,17.12
2018-05-17T01:35:24.218Z,17.17
2018-05-17T01:38:04.192Z,17.21
2018-05-17T01:40:32.553Z,17.27
2018-05-17T01:43:01.259Z,17.26
2018-05-17T01:45:29.582Z,17.19
2018-05-17T01:47:57.990Z,17.04
2018-05-17T01:50:26.237Z,16.98
2018-05-17T01:52:54.562Z,17.02
2018-05-17T01:55:22.842Z,17.04
2018-05-17T01:57:51.186Z,17.05
2018-05-17T02:00:19.532Z,17.06
2018-05-17T02:02:47.842Z,17.20
2018-05-17T02:05:17.319Z,17.29
2018-05-17T02:07:45.638Z,17.13
2018-05-17T02:10:13.923Z,16.88
2018-05-17T02:12:42.257Z,16.85
2018-05-17T02:15:10.549Z,16.93
2018-05-17T02:17:38.867Z,17.08
2018-05-17T02:20:07.157Z,17.03
2018-05-17T02:22:35.488Z,16.73
2018-05-17T02:25:07.885Z,16.59
2018-05-17T02:27:36.341Z,16.49
2018-05-17T02:30:04.959Z,16.47
2018-05-17T02:32:40.564Z,16.43
2018-05-17T02:35:09.915Z,16.68
2018-05-17T02:37:43.731Z,16.81
2018-05-17T02:40:15.016Z,16.88
2018-05-17T02:42:43.875Z,17.02
2018-05-17T02:45:12.182Z,17.01
2018-05-17T02:47:42.166Z,16.84
2018-05-17T02:50:10.501Z,16.79
2018-05-17T02:52:38.856Z,16.62
2018-05-17T02:55:07.179Z,16.42
2018-05-17T02:57:35.508Z,16.45
2018-05-17T03:00:03.823Z,16.29
2018-05-17T03:02:32.192Z,16.16
2018-05-17T03:05:00.467Z,16.16
2018-05-17T03:07:28.761Z,16.08
2018-05-17T03:09:57.071Z,16.00
2018-05-17T03:12:25.380Z,15.89
2018-05-17T03:14:53.710Z,16.02
2018-05-17T03:17:21.997Z,16.04
2018-05-17T03:19:50.407Z,15.87
2018-05-17T03:22:18.718Z,15.78
2018-05-17T03:24:47.151Z,15.86
2018-05-17T03:27:15.453Z,16.00
2018-05-17T03:29:43.741Z,16.18
2018-05-17T03:32:12.109Z,15.87
2018-05-17T03:34:40.395Z,15.65
2018-05-17T03:37:08.706Z,15.50
2018-05-17T03:39:37.041Z,15.41
2018-05-17T03:42:05.406Z,15.48
2018-05-17T03:44:33.698Z,15.42
2018-05-17T03:47:01.996Z,15.40
2018-05-17T03:49:30.485Z,15.32
2018-05-17T03:51:58.827Z,15.28
2018-05-17T03:54:27.127Z,15.27
2018-05-17T03:56:55.476Z,15.23
2018-05-17T03:59:23.763Z,15.34
2018-05-17T04:02:03.841Z,15.50
2018-05-17T04:04:43.888Z,15.29
2018-05-17T04:07:12.773Z,15.22
2018-05-17T04:09:41.075Z,15.14
2018-05-17T04:12:09.418Z,15.24
2018-05-17T04:14:38.014Z,15.23
2018-05-17T04:17:06.381Z,15.22
2018-05-17T04:19:34.770Z,15.04
2018-05-17T04:22:03.337Z,15.01
2018-05-17T04:24:31.597Z,15.22
2018-05-17T04:27:00.003Z,15.17
2018-05-17T04:29:28.312Z,15.19
2018-05-17T04:31:56.650Z,15.29
2018-05-17T04:34:24.950Z,15.28
2018-05-17T04:36:53.306Z,15.36
2018-05-17T04:39:21.589Z,15.33
2018-05-17T04:41:49.894Z,15.36
2018-05-17T04:44:18.235Z,15.22
2018-05-17T04:46:46.799Z,14.97
2018-05-17T04:49:15.138Z,15.00
2018-05-17T04:51:43.464Z,15.15
2018-05-17T04:54:11.856Z,15.35
2018-05-17T04:56:40.164Z,15.39
2018-05-17T04:59:08.509Z,15.16
2018-05-17T05:01:36.792Z,15.14
2018-05-17T05:04:05.786Z,15.21
2018-05-17T05:06:34.059Z,15.19
2018-05-17T05:09:02.422Z,15.45
2018-05-17T05:11:30.715Z,15.31
2018-05-17T05:13:59.002Z,14.98
2018-05-17T05:16:27.363Z,15.18
2018-05-17T05:18:55.693Z,15.16
2018-05-17T05:21:25.130Z,15.22
2018-05-17T05:23:53.700Z,15.05
2018-05-17T05:26:22.023Z,15.20
2018-05-17T05:28:50.310Z,15.36
2018-05-17T05:31:18.631Z,15.34
2018-05-17T05:33:46.930Z,15.07
2018-05-17T05:36:15.247Z,14.82
2018-05-17T05:38:43.587Z,14.83
2018-05-17T05:41:11.958Z,15.07
2018-05-17T05:43:40.282Z,15.13
2018-05-17T05:46:09.096Z,15.20
2018-05-17T05:48:37.431Z,15.35
2018-05-17T05:51:05.698Z,15.48
2018-05-17T05:53:34.477Z,15.47
2018-05-17T05:56:02.807Z,15.65
2018-05-17T05:58:31.143Z,15.52
2018-05-17T06:00:59.452Z,15.56
2018-05-17T06:03:27.764Z,15.68
2018-05-17T06:05:56.298Z,15.61
2018-05-17T06:08:24.680Z,15.54
2018-05-17T06:10:53.095Z,15.28
2018-05-17T06:13:21.481Z,15.60
2018-05-17T06:15:49.749Z,15.71
2018-05-17T06:18:18.640Z,15.82
2018-05-17T06:20:46.935Z,15.79
2018-05-17T06:23:15.240Z,15.91
2018-05-17T06:25:45.447Z,15.51
2018-05-17T06:28:14.563Z,15.53
2018-05-17T06:30:42.870Z,15.30
2018-05-17T06:33:11.175Z,15.08
2018-05-17T06:35:39.554Z,15.14
2018-05-17T06:38:08.208Z,15.09
2018-05-17T06:40:36.509Z,15.30
2018-05-17T06:43:04.868Z,15.31
2018-05-17T06:45:34.904Z,15.47
2018-05-17T06:48:03.219Z,15.74
2018-05-17T06:50:31.741Z,15.94
2018-05-17T06:53:00.046Z,15.87
2018-05-17T06:55:28.500Z,15.77
2018-05-17T06:57:56.779Z,15.70
2018-05-17T07:00:25.131Z,15.71
2018-05-17T07:02:53.468Z,15.73
2018-05-17T07:05:21.812Z,15.57
2018-05-17T07:07:50.717Z,15.45
2018-05-17T07:10:19.576Z,15.40
2018-05-17T07:12:48.063Z,15.63
2018-05-17T07:15:16.384Z,15.30
2018-05-17T07:17:44.680Z,15.43
2018-05-17T07:20:13.928Z,15.71
2018-05-17T07:22:42.229Z,15.84
2018-05-17T07:25:10.619Z,15.86
2018-05-17T07:27:39.166Z,15.61
2018-05-17T07:30:07.457Z,15.45
2018-05-17T07:32:35.805Z,15.44
2018-05-17T07:35:04.109Z,15.76
2018-05-17T07:37:32.404Z,16.14
2018-05-17T07:40:00.768Z,16.24
2018-05-17T07:42:29.066Z,16.43
2018-05-17T07:44:57.338Z,16.19
2018-05-17T07:47:25.748Z,16.21
2018-05-17T07:49:54.293Z,16.23
2018-05-17T07:52:22.698Z,16.00
2018-05-17T07:54:51.067Z,15.87
2018-05-17T07:57:19.391Z,15.89
2018-05-17T07:59:48.608Z,15.82
2018-05-17T08:02:16.938Z,15.94
2018-05-17T08:04:45.286Z,16.03
2018-05-17T08:07:13.604Z,15.96
2018-05-17T08:09:43.087Z,16.08
2018-05-17T08:12:11.410Z,15.73
2018-05-17T08:14:39.787Z,15.64
2018-05-17T08:17:09.165Z,15.60
2018-05-17T08:19:37.493Z,15.67
2018-05-17T08:22:05.849Z,15.72
2018-05-17T08:24:34.388Z,15.72
2018-05-17T08:27:03.349Z,16.03
2018-05-17T08:29:32.197Z,15.77
2018-05-17T08:32:00.516Z,15.65
2018-05-17T08:34:28.932Z,15.76
2018-05-17T08:36:57.205Z,16.12
2018-05-17T08:39:25.528Z,16.39
2018-05-17T08:41:53.973Z,16.42
2018-05-17T08:44:22.320Z,16.42
2018-05-17T08:46:52.473Z,16.11
2018-05-17T08:49:20.769Z,16.04
2018-05-17T08:51:49.122Z,15.87
2018-05-17T08:54:17.435Z,16.11
2018-05-17T08:56:45.862Z,16.35
2018-05-17T08:59:14.569Z,16.03
2018-05-17T09:01:43.362Z,15.84
2018-05-17T09:04:11.718Z,16.20
2018-05-17T09:06:40.058Z,16.44
2018-05-17T09:09:08.565Z,16.43
2018-05-17T09:11:36.857Z,16.43
2018-05-17T09:17:06.213Z,16.70
2018-05-17T09:19:34.541Z,16.90
2018-05-17T09:22:02.891Z,16.78
2018-05-17T09:24:31.313Z,16.58
2018-05-17T09:27:00.565Z,16.79
2018-05-17T09:29:28.841Z,17.07
2018-05-17T09:31:57.292Z,17.29
2018-05-17T09:34:25.749Z,17.27
2018-05-17T09:36:54.190Z,17.39
2018-05-17T09:39:22.703Z,17.54
2018-05-17T09:41:51.083Z,17.67
2018-05-17T09:44:19.448Z,17.42
2018-05-17T09:46:49.255Z,17.15
2018-05-17T09:49:17.673Z,17.09
2018-05-17T09:51:45.960Z,17.14
2018-05-17T09:54:14.320Z,17.23
2018-05-17T09:56:42.645Z,17.62
2018-05-17T09:59:11.230Z,17.95
2018-05-17T10:01:39.532Z,18.13
2018-05-17T10:04:07.852Z,17.89
2018-05-17T10:06:36.147Z,17.76
2018-05-17T10:09:04.524Z,17.66
2018-05-17T10:11:32.835Z,17.92
2018-05-17T10:14:01.230Z,18.01
2018-05-17T10:16:29.515Z,17.90
2018-05-17T10:18:57.900Z,18.19
2018-05-17T10:21:26.178Z,18.41
2018-05-17T10:23:55.718Z,18.43
2018-05-17T10:26:24.268Z,18.42
2018-05-17T10:28:52.589Z,18.69
2018-05-17T10:31:21.003Z,18.63
2018-05-17T10:33:49.286Z,18.66
2018-05-17T10:36:17.610Z,18.96
2018-05-17T10:38:45.920Z,19.31
2018-05-17T10:41:14.247Z,19.00
2018-05-17T10:43:42.533Z,18.93
2018-05-17T10:46:10.870Z,18.84
2018-05-17T10:48:39.179Z,19.04
2018-05-17T10:51:07.525Z,19.34
2018-05-17T10:53:35.929Z,19.52
2018-05-17T10:56:05.458Z,19.43
2018-05-17T10:58:33.750Z,19.59
2018-05-17T11:01:02.141Z,19.83
2018-05-17T11:03:30.722Z,20.13
2018-05-17T11:05:59.118Z,20.15
2018-05-17T11:08:27.413Z,20.23
2018-05-17T11:10:57.754Z,20.19
2018-05-17T11:13:27.533Z,20.23
2018-05-17T11:15:56.446Z,20.15
2018-05-17T11:18:26.954Z,18.97
2018-05-17T11:20:56.109Z,20.03
2018-05-17T11:23:24.468Z,20.37
2018-05-17T11:25:53.350Z,20.56
2018-05-17T11:28:21.775Z,20.92
2018-05-17T11:30:50.055Z,20.74
2018-05-17T11:33:18.511Z,20.28
2018-05-17T11:35:46.846Z,20.63
2018-05-17T11:38:15.341Z,21.09
2018-05-17T11:40:43.595Z,21.40
2018-05-17T11:43:12.925Z,21.05
2018-05-17T11:45:41.359Z,21.28
2018-05-17T11:48:09.697Z,21.57
2018-05-17T11:50:38.019Z,21.46
2018-05-17T11:53:06.370Z,21.44
2018-05-17T11:55:34.750Z,21.21
2018-05-17T11:58:03.070Z,20.85
2018-05-17T12:00:31.372Z,20.84
2018-05-17T12:02:59.831Z,20.61
2018-05-17T12:05:28.162Z,20.73
2018-05-17T12:07:56.650Z,20.89
2018-05-17T12:10:25.636Z,20.84
2018-05-17T12:12:53.957Z,21.07
2018-05-17T12:15:22.290Z,21.62
2018-05-17T12:17:50.702Z,21.82
2018-05-17T12:20:19.064Z,21.50
2018-05-17T12:22:47.339Z,21.53
2018-05-17T12:25:16.939Z,21.88
2018-05-17T12:27:48.406Z,22.02
2018-05-17T12:30:17.447Z,21.81
2018-05-17T12:32:46.191Z,21.81
2018-05-17T12:35:14.563Z,21.88
2018-05-17T12:37:42.948Z,22.28
2018-05-17T12:40:11.981Z,22.30
2018-05-17T12:42:40.365Z,22.47
2018-05-17T12:45:08.699Z,22.41
2018-05-17T12:47:37.155Z,22.79
2018-05-17T12:50:06.407Z,22.68
2018-05-17T12:52:35.660Z,22.56
2018-05-17T12:55:03.976Z,22.75
2018-05-17T12:57:32.314Z,22.87
2018-05-17T13:00:00.647Z,23.20
2018-05-17T13:02:29.010Z,23.29
2018-05-17T13:04:57.361Z,23.56
2018-05-17T13:07:25.685Z,23.80
2018-05-17T13:09:54.224Z,23.32
2018-05-17T13:12:22.575Z,22.86
2018-05-17T13:14:51.656Z,22.96
2018-05-17T13:17:20.381Z,23.43
2018-05-17T13:19:49.461Z,23.35
2018-05-17T13:22:17.820Z,23.70
2018-05-17T13:24:47.098Z,23.46
2018-05-17T13:27:15.583Z,23.51
2018-05-17T13:29:43.923Z,23.70
2018-05-17T13:32:12.334Z,24.32
2018-05-17T13:34:40.776Z,24.00
2018-05-17T13:37:09.088Z,24.01
2018-05-17T13:39:37.436Z,24.13
2018-05-17T13:42:05.765Z,24.33
2018-05-17T13:44:34.325Z,24.39
2018-05-17T13:47:02.605Z,24.17
2018-05-17T13:49:32.386Z,24.14
2018-05-17T13:52:00.722Z,23.84
2018-05-17T13:54:29.116Z,23.83
2018-05-17T13:56:58.045Z,23.83
2018-05-17T13:59:26.470Z,23.82
2018-05-17T14:01:54.774Z,23.43
2018-05-17T14:04:23.109Z,23.31
2018-05-17T14:06:51.359Z,23.53
2018-05-17T14:09:19.670Z,23.69
2018-05-17T14:11:48.017Z,23.19
2018-05-17T14:14:16.381Z,23.24
2018-05-17T14:16:44.863Z,23.35
2018-05-17T14:19:13.162Z,23.51
2018-05-17T14:21:41.529Z,23.47
2018-05-17T14:24:10.126Z,23.51
2018-05-17T14:26:39.428Z,23.80
2018-05-17T14:29:07.825Z,24.15
2018-05-17T14:31:36.202Z,24.84
2018-05-17T14:34:04.952Z,24.22
2018-05-17T14:36:33.307Z,24.01
2018-05-17T14:39:01.721Z,23.60
2018-05-17T14:41:30.107Z,23.62
2018-05-17T14:43:58.394Z,23.73
2018-05-17T14:46:26.861Z,23.63
2018-05-17T14:48:55.180Z,23.30
2018-05-17T14:51:23.534Z,23.28
2018-05-17T14:53:51.985Z,23.01
2018-05-17T14:56:20.339Z,23.03
2018-05-17T14:58:49.586Z,23.51
2018-05-17T15:01:18.028Z,23.61
2018-05-17T15:03:46.245Z,23.80
2018-05-17T15:06:14.761Z,23.43
2018-05-17T15:08:43.239Z,24.09
2018-05-17T15:11:14.756Z,24.15
2018-05-17T15:13:39.814Z,24.40
2018-05-17T15:16:08.711Z,24.95
2018-05-17T15:18:36.987Z,25.17
2018-05-17T15:21:05.726Z,25.23
2018-05-17T15:23:34.082Z,25.44
2018-05-17T15:26:02.367Z,24.84
2018-05-17T15:28:30.689Z,24.90
2018-05-17T15:30:58.997Z,25.27
2018-05-17T15:33:27.281Z,25.51
2018-05-17T15:35:55.592Z,25.12
2018-05-17T15:38:24.142Z,24.45
2018-05-17T15:40:52.543Z,24.69
2018-05-17T15:43:20.854Z,24.33
2018-05-17T15:45:49.251Z,23.88
2018-05-17T15:48:18.576Z,24.01
2018-05-17T15:50:46.827Z,23.50
2018-05-17T15:53:15.260Z,23.28
2018-05-17T15:55:44.032Z,23.49
2018-05-17T15:58:13.891Z,23.51
2018-05-17T16:00:42.360Z,23.36
2018-05-17T16:03:10.707Z,23.18
2018-05-17T16:05:39.347Z,23.34
2018-05-17T16:08:08.004Z,23.90
2018-05-17T16:10:38.441Z,24.48
2018-05-17T16:13:06.823Z,24.26
2018-05-17T16:15:35.450Z,24.45
2018-05-17T16:18:04.748Z,24.51
2018-05-17T16:20:37.704Z,24.45
2018-05-17T16:23:06.724Z,25.07
2018-05-17T16:25:35.346Z,25.43
2018-05-17T16:28:03.832Z,25.62
2018-05-17T16:30:32.171Z,25.22
2018-05-17T16:33:02.167Z,25.95
2018-05-17T16:35:30.832Z,25.71
2018-05-17T16:38:03.024Z,25.83
2018-05-17T16:40:31.595Z,25.84
2018-05-17T16:43:08.454Z,25.52
2018-05-17T16:45:37.252Z,25.32
2018-05-17T16:48:06.487Z,25.36
2018-05-17T16:50:37.513Z,25.75
2018-05-17T16:53:07.751Z,25.73
2018-05-17T16:55:41.429Z,25.01
2018-05-17T16:58:11.793Z,25.78
2018-05-17T17:00:45.032Z,25.97
2018-05-17T17:03:15.587Z,26.10
2018-05-17T17:05:52.775Z,25.20
2018-05-17T17:08:28.837Z,24.61
2018-05-17T17:13:38.200Z,23.56
2018-05-17T17:16:07.083Z,23.33
2018-05-17T17:18:37.303Z,23.39
2018-05-17T17:21:05.964Z,23.09
2018-05-17T17:23:34.853Z,22.80
2018-05-17T17:26:03.372Z,22.54
2018-05-17T17:28:32.081Z,22.72
2018-05-17T17:31:00.465Z,22.48
2018-05-17T17:33:28.672Z,22.21
2018-05-17T17:35:57.153Z,21.92
2018-05-17T17:38:25.558Z,21.87
2018-05-17T17:40:53.977Z,21.72
2018-05-17T17:43:22.292Z,21.79
2018-05-17T17:45:50.627Z,21.69
2018-05-17T17:48:18.947Z,21.75
2018-05-17T17:50:47.279Z,21.81
2018-05-17T17:53:15.629Z,21.89
2018-05-17T17:55:44.824Z,21.78
2018-05-17T17:58:13.125Z,21.52
2018-05-17T18:00:41.699Z,21.24
2018-05-17T18:03:10.028Z,21.27
2018-05-17T18:05:38.423Z,21.36
2018-05-17T18:08:06.699Z,21.40
2018-05-17T18:10:35.061Z,21.25
2018-05-17T18:13:04.082Z,21.22
2018-05-17T18:15:32.871Z,21.00
2018-05-17T18:18:02.082Z,20.74
2018-05-17T18:20:34.130Z,20.83
2018-05-17T18:23:04.494Z,21.02
2018-05-17T18:25:35.722Z,21.01
2018-05-17T18:28:05.319Z,20.69
2018-05-17T18:30:33.837Z,20.52
2018-05-17T18:33:06.283Z,19.93
2018-05-17T18:35:34.886Z,20.48
2018-05-17T18:38:03.613Z,20.46
2018-05-17T18:40:32.648Z,20.34
2018-05-17T18:43:01.191Z,20.15
2018-05-17T18:45:29.529Z,20.23
2018-05-17T18:47:57.997Z,20.26
2018-05-17T18:50:30.142Z,20.14
2018-05-17T18:53:01.440Z,20.19
2018-05-17T18:55:35.501Z,19.92
2018-05-17T18:58:04.803Z,20.04
2018-05-17T19:00:33.182Z,19.90
2018-05-17T19:03:01.658Z,20.08
2018-05-17T19:05:31.732Z,19.86
2018-05-17T19:08:00.190Z,19.74
2018-05-17T19:10:29.493Z,19.48
2018-05-17T19:12:57.892Z,19.54
2018-05-17T19:15:26.276Z,19.71
2018-05-17T19:17:54.945Z,19.35
2018-05-17T19:20:23.501Z,19.44
2018-05-17T19:22:51.811Z,19.29
2018-05-17T19:25:20.197Z,19.14
2018-05-17T19:27:48.698Z,19.14
2018-05-17T19:30:18.091Z,19.13
2018-05-17T19:32:46.586Z,19.11
2018-05-17T19:35:14.919Z,19.08
2018-05-17T19:37:44.312Z,18.97
2018-05-17T19:40:13.292Z,19.02
2018-05-17T19:42:41.643Z,19.06
2018-05-17T19:45:11.170Z,18.96
2018-05-17T19:47:39.540Z,19.00
2018-05-17T19:50:09.321Z,18.90
2018-05-17T19:52:38.234Z,18.76
2018-05-17T19:55:06.663Z,18.89
2018-05-17T19:57:35.279Z,18.84
2018-05-17T20:00:06.300Z,18.69
2018-05-17T20:02:37.403Z,18.71
2018-05-17T20:05:06.376Z,18.86
2018-05-17T20:07:34.680Z,19.01
2018-05-17T20:10:03.418Z,19.14
2018-05-17T20:12:32.416Z,19.07
2018-05-17T20:15:02.498Z,19.07
2018-05-17T20:17:39.870Z,19.09
2018-05-17T20:20:12.414Z,19.03
2018-05-17T20:22:42.213Z,19.08
2018-05-17T20:25:11.157Z,19.04
2018-05-17T20:27:39.841Z,18.91
2018-05-17T20:30:08.716Z,18.95
2018-05-17T20:32:39.584Z,18.94
2018-05-17T20:35:07.946Z,18.91
2018-05-17T20:37:37.154Z,18.80
2018-05-17T20:40:05.589Z,18.77
2018-05-17T20:42:34.062Z,18.62
2018-05-17T20:45:02.388Z,18.43
2018-05-17T20:47:32.407Z,18.26
2018-05-17T20:50:01.010Z,18.09
2018-05-17T20:52:29.867Z,18.03
2018-05-17T20:54:58.309Z,18.10
2018-05-17T20:57:27.007Z,17.89
2018-05-17T20:59:55.283Z,17.79
2018-05-17T21:02:23.870Z,17.83
2018-05-17T21:04:52.220Z,17.85
2018-05-17T21:07:23.068Z,17.73
2018-05-17T21:09:51.505Z,17.62
2018-05-17T21:12:20.189Z,17.48
2018-05-17T21:14:48.567Z,17.41
2018-05-17T21:17:16.855Z,17.39
2018-05-17T21:19:45.883Z,17.37
2018-05-17T21:22:14.228Z,17.26
2018-05-17T21:24:42.611Z,17.23
2018-05-17T21:27:11.003Z,17.21
2018-05-17T21:29:39.239Z,17.14
2018-05-17T21:32:07.711Z,17.12
2018-05-17T21:34:37.248Z,17.15
2018-05-17T21:37:05.614Z,16.99
2018-05-17T21:39:34.431Z,16.93
2018-05-17T21:42:02.657Z,16.77
2018-05-17T21:44:31.021Z,16.76
2018-05-17T21:46:59.331Z,16.76
2018-05-17T21:49:27.832Z,16.57
2018-05-17T21:51:56.440Z,16.55
2018-05-17T21:54:25.730Z,16.49
2018-05-17T21:56:54.015Z,16.45
2018-05-17T21:59:22.310Z,16.23
2018-05-17T22:01:50.721Z,16.09
2018-05-17T22:04:19.071Z,16.09
2018-05-17T22:06:48.467Z,16.11
2018-05-17T22:09:17.974Z,16.02
2018-05-17T22:11:48.721Z,15.93
2018-05-17T22:14:17.039Z,15.83
2018-05-17T22:16:46.164Z,15.55
2018-05-17T22:19:14.544Z,15.60
2018-05-17T22:21:44.356Z,15.34
2018-05-17T22:24:12.769Z,15.20
2018-05-17T22:26:41.195Z,15.22
2018-05-17T22:29:09.594Z,15.35
2018-05-17T22:31:38.182Z,15.41
2018-05-17T22:34:06.695Z,15.28
2018-05-17T22:36:35.050Z,15.31
2018-05-17T22:39:03.310Z,15.47
2018-05-17T22:41:31.684Z,15.45
2018-05-17T22:44:00.084Z,15.42
2018-05-17T22:46:28.665Z,15.39
2018-05-17T22:48:56.969Z,15.35
2018-05-17T22:51:25.392Z,15.46
2018-05-17T22:53:54.551Z,15.39
2018-05-17T22:56:34.474Z,15.39
2018-05-17T22:59:03.770Z,15.27
2018-05-17T23:01:32.068Z,14.92
2018-05-17T23:04:00.735Z,14.77
2018-05-17T23:06:29.110Z,14.83
2018-05-17T23:08:58.775Z,14.76
2018-05-17T23:11:27.091Z,14.82
2018-05-17T23:13:55.505Z,14.47
2018-05-17T23:16:23.846Z,14.36
2018-05-17T23:18:52.325Z,14.44
2018-05-17T23:21:20.944Z,14.48
2018-05-17T23:23:49.411Z,14.52
2018-05-17T23:26:17.769Z,14.53
2018-05-17T23:28:46.059Z,14.57
2018-05-17T23:31:15.072Z,14.49
2018-05-17T23:33:43.407Z,14.44
2018-05-17T23:36:11.734Z,14.12
2018-05-17T23:38:40.077Z,14.14
2018-05-17T23:44:17.507Z,14.07
2018-05-17T23:46:46.279Z,14.00
2018-05-17T23:49:14.581Z,14.06
2018-05-17T23:51:42.948Z,14.19
2018-05-17T23:54:11.331Z,14.17
2018-05-17T23:56:39.619Z,13.73
2018-05-17T23:59:07.967Z,13.60
